Time;durP1;ratioP1;P1;durP2;ratioP2;P2;SDS_P1;SDS_P2;PMS_P1;PMS_P2;Temp;Humidity;BMP_temperature;BMP_pressure;BME280_temperature;BME280_humidity;BME280_pressure;Samples;Min_cycle;Max_cycle;Signal;HPM_P1;HPM_P2
2023/09/23 00:00:56;;;;;;;6.03;2.80;;;13.50;99.90;;;;;;5053055;28;20061;-81
2023/09/23 00:03:23;;;;;;;7.28;2.78;;;13.50;99.90;;;;;;5053302;28;20067;-81
2023/09/23 00:05:50;;;;;;;7.72;2.90;;;13.50;99.90;;;;;;5052209;28;20052;-80
2023/09/23 00:08:18;;;;;;;7.55;3.03;;;13.50;99.90;;;;;;5053358;28;20045;-80
2023/09/23 00:10:50;;;;;;;7.78;3.05;;;13.50;99.90;;;;;;5053295;28;20056;-81
2023/09/23 00:13:16;;;;;;;8.18;3.15;;;13.50;99.90;;;;;;5052035;28;20045;-80
2023/09/23 00:15:43;;;;;;;7.32;3.42;;;13.50;99.90;;;;;;5052241;28;20067;-80
2023/09/23 00:18:09;;;;;;;10.18;3.70;;;13.50;99.90;;;;;;5052064;28;20052;-80
2023/09/23 00:20:36;;;;;;;7.50;3.90;;;13.50;99.90;;;;;;5052212;28;20049;-81
2023/09/23 00:23:05;;;;;;;10.98;4.20;;;13.50;99.90;;;;;;5051949;28;20049;-80
2023/09/23 00:25:35;;;;;;;7.78;4.13;;;13.40;99.90;;;;;;5052059;28;20503;-80
2023/09/23 00:28:02;;;;;;;6.57;4.00;;;13.40;99.90;;;;;;5051831;28;20396;-80
2023/09/23 00:30:33;;;;;;;7.10;3.65;;;13.40;99.90;;;;;;5052114;28;20044;-80
2023/09/23 00:32:59;;;;;;;8.10;3.78;;;13.40;99.90;;;;;;5053157;28;20033;-80
2023/09/23 00:35:24;;;;;;;7.90;3.78;;;13.40;99.90;;;;;;5053159;28;20061;-80
2023/09/23 00:37:50;;;;;;;8.30;3.78;;;13.40;99.90;;;;;;5051916;28;20060;-80
2023/09/23 00:40:32;;;;;;;8.02;3.58;;;13.40;99.90;;;;;;5051733;28;20091;-80
2023/09/23 00:43:07;;;;;;;4.70;3.27;;;13.40;99.90;;;;;;5052990;28;20485;-81
2023/09/23 00:45:36;;;;;;;7.78;2.90;;;13.40;99.90;;;;;;5051848;28;20049;-81
2023/09/23 00:48:05;;;;;;;6.18;2.83;;;13.40;99.90;;;;;;5051958;28;20077;-81
2023/09/23 00:50:30;;;;;;;6.18;2.92;;;13.30;99.90;;;;;;5052814;28;20423;-81
2023/09/23 00:52:56;;;;;;;7.15;2.33;;;13.40;99.90;;;;;;5051646;28;20535;-81
2023/09/23 00:55:25;;;;;;;8.38;2.63;;;13.30;99.90;;;;;;5051956;28;20045;-81
2023/09/23 00:57:53;;;;;;;6.07;2.90;;;13.20;99.90;;;;;;5051606;28;20136;-81
2023/09/23 01:00:27;;;;;;;6.82;2.38;;;13.20;99.90;;;;;;5051972;28;20049;-81
2023/09/23 01:02:56;;;;;;;5.28;2.75;;;13.20;99.90;;;;;;5052043;28;20127;-81
2023/09/23 01:05:23;;;;;;;5.25;2.00;;;13.20;99.90;;;;;;5051823;28;20052;-81
2023/09/23 01:07:49;;;;;;;7.50;1.95;;;13.20;99.90;;;;;;5051730;28;20385;-81
2023/09/23 01:10:17;;;;;;;4.72;1.70;;;13.20;99.90;;;;;;5052955;28;20037;-80
2023/09/23 01:12:45;;;;;;;5.53;1.73;;;13.20;99.90;;;;;;5053625;28;20432;-80
2023/09/23 01:15:11;;;;;;;3.97;1.40;;;13.20;99.90;;;;;;5056384;28;20499;-81
2023/09/23 01:17:36;;;;;;;5.78;1.50;;;13.10;99.90;;;;;;5054966;28;20049;-81
2023/09/23 01:20:12;;;;;;;4.82;1.85;;;13.10;99.90;;;;;;5054926;28;20048;-81
2023/09/23 01:22:37;;;;;;;3.92;1.60;;;13.10;99.90;;;;;;5054960;28;20565;-81
2023/09/23 01:25:04;;;;;;;4.25;1.77;;;13.10;99.90;;;;;;5054951;28;20591;-81
2023/09/23 01:27:30;;;;;;;4.45;1.38;;;13.10;99.90;;;;;;5054925;28;20076;-81
2023/09/23 01:29:56;;;;;;;4.63;1.20;;;13.10;99.90;;;;;;5054839;28;20142;-81
2023/09/23 01:32:28;;;;;;;3.22;1.20;;;13.00;99.90;;;;;;5054710;28;20045;-81
2023/09/23 01:34:54;;;;;;;3.78;1.20;;;13.00;99.90;;;;;;5054905;28;20049;-81
2023/09/23 01:37:20;;;;;;;3.85;1.48;;;12.90;99.90;;;;;;5054779;28;20051;-81
2023/09/23 01:39:47;;;;;;;2.83;1.23;;;12.90;99.90;;;;;;5054528;28;20099;-80
2023/09/23 01:42:13;;;;;;;3.67;1.17;;;12.90;99.90;;;;;;5054621;28;20056;-80
2023/09/23 01:44:40;;;;;;;4.55;1.17;;;12.90;99.90;;;;;;5054495;28;20045;-81
2023/09/23 01:47:05;;;;;;;3.83;1.35;;;12.90;99.90;;;;;;5054683;28;20060;-81
2023/09/23 01:49:31;;;;;;;4.43;1.38;;;12.80;99.90;;;;;;5054334;28;20396;-81
2023/09/23 01:51:57;;;;;;;5.03;1.40;;;12.80;99.90;;;;;;5054455;28;20079;-80
2023/09/23 01:54:26;;;;;;;3.97;1.63;;;12.70;99.90;;;;;;5055463;28;20044;-81
2023/09/23 01:56:51;;;;;;;6.18;1.15;;;12.70;99.90;;;;;;5054353;28;20071;-80
2023/09/23 01:59:18;;;;;;;3.63;1.70;;;12.70;99.90;;;;;;5053995;28;20053;-81
2023/09/23 02:01:44;;;;;;;3.05;1.17;;;12.60;99.90;;;;;;5054189;28;20484;-80
2023/09/23 02:04:11;;;;;;;2.20;1.10;;;12.70;99.90;;;;;;5054405;28;20047;-82
2023/09/23 02:06:42;;;;;;;3.38;1.40;;;12.70;99.90;;;;;;5054399;28;20041;-80
2023/09/23 02:09:09;;;;;;;5.03;1.67;;;12.70;99.90;;;;;;5054101;28;20053;-80
2023/09/23 02:11:37;;;;;;;5.53;1.63;;;12.60;99.90;;;;;;5053856;28;20395;-80
2023/09/23 02:14:06;;;;;;;11.25;2.53;;;12.60;99.90;;;;;;5054161;28;20075;-81
2023/09/23 02:16:32;;;;;;;6.50;1.90;;;12.60;99.90;;;;;;5053863;28;20102;-80
2023/09/23 02:18:58;;;;;;;4.90;2.25;;;12.60;99.90;;;;;;5053794;28;20044;-80
2023/09/23 02:21:27;;;;;;;4.93;2.92;;;12.60;99.90;;;;;;5054165;28;20041;-80
2023/09/23 02:23:56;;;;;;;5.78;3.10;;;12.60;99.90;;;;;;5054963;28;20091;-80
2023/09/23 02:26:24;;;;;;;7.22;3.35;;;12.50;99.90;;;;;;5053604;28;20400;-80
2023/09/23 02:28:49;;;;;;;8.80;3.78;;;12.60;99.90;;;;;;5053585;28;20048;-81
2023/09/23 02:31:16;;;;;;;8.82;4.13;;;12.60;99.90;;;;;;5054879;28;20037;-81
2023/09/23 02:33:43;;;;;;;7.53;4.40;;;12.60;99.90;;;;;;5053613;28;20048;-80
2023/09/23 02:36:09;;;;;;;8.98;4.80;;;12.60;99.90;;;;;;5053585;28;20053;-80
2023/09/23 02:38:35;;;;;;;8.95;5.00;;;12.60;99.90;;;;;;5053311;28;20102;-80
2023/09/23 02:41:04;;;;;;;10.55;5.50;;;12.60;99.90;;;;;;5053576;28;20053;-81
2023/09/23 02:43:29;;;;;;;11.35;6.45;;;12.60;99.90;;;;;;5053348;28;20045;-80
2023/09/23 02:46:00;;;;;;;12.80;7.15;;;12.50;99.90;;;;;;5053343;28;20037;-80
2023/09/23 02:48:26;;;;;;;12.27;7.28;;;12.50;99.90;;;;;;5053233;28;20048;-80
2023/09/23 02:50:53;;;;;;;15.40;8.13;;;12.50;99.90;;;;;;5053291;28;20102;-80
2023/09/23 02:53:19;;;;;;;15.05;8.13;;;12.50;99.90;;;;;;5053091;28;20384;-80
2023/09/23 02:55:51;;;;;;;16.30;8.82;;;12.50;99.90;;;;;;5053299;28;20687;-80
2023/09/23 02:58:22;;;;;;;12.57;8.35;;;12.60;99.90;;;;;;5052967;28;20516;-81
2023/09/23 03:00:57;;;;;;;14.93;8.90;;;12.50;99.90;;;;;;5053089;28;20464;-80
2023/09/23 03:03:23;;;;;;;14.88;8.52;;;12.50;99.90;;;;;;5053180;28;20052;-80
2023/09/23 03:05:54;;;;;;;17.48;8.75;;;12.50;99.90;;;;;;5053109;28;20044;-81
2023/09/23 03:08:22;;;;;;;14.90;9.13;;;12.50;99.90;;;;;;5053028;28;20119;-81
2023/09/23 03:10:49;;;;;;;16.27;9.50;;;12.50;99.90;;;;;;5052818;28;20381;-81
2023/09/23 03:13:17;;;;;;;15.35;8.60;;;12.50;99.90;;;;;;5053193;28;20049;-80
2023/09/23 03:15:48;;;;;;;15.70;8.77;;;12.50;99.90;;;;;;5052939;28;20139;-80
2023/09/23 03:18:27;;;;;;;14.45;8.70;;;12.50;99.90;;;;;;5052923;28;20092;-80
2023/09/23 03:20:59;;;;;;;14.82;9.45;;;12.50;99.90;;;;;;5054133;28;20052;-80
2023/09/23 03:23:26;;;;;;;15.97;10.03;;;12.50;99.90;;;;;;5052779;28;20048;-81
2023/09/23 03:25:52;;;;;;;17.45;9.18;;;12.50;99.90;;;;;;5052712;28;20055;-80
2023/09/23 03:28:18;;;;;;;16.27;9.07;;;12.50;99.90;;;;;;5053858;28;20079;-80
2023/09/23 03:30:47;;;;;;;18.38;10.10;;;12.50;99.90;;;;;;5053852;28;20079;-80
2023/09/23 03:33:14;;;;;;;15.70;10.23;;;12.50;99.90;;;;;;5052564;28;20095;-80
2023/09/23 03:35:39;;;;;;;17.38;10.20;;;12.50;99.90;;;;;;5052274;28;20101;-80
2023/09/23 03:38:05;;;;;;;15.65;10.50;;;12.50;99.90;;;;;;5052760;28;20045;-80
2023/09/23 03:40:31;;;;;;;17.10;10.88;;;12.50;99.90;;;;;;5052694;28;20082;-81
2023/09/23 03:43:01;;;;;;;20.80;10.50;;;12.50;99.90;;;;;;5053667;28;20059;-81
2023/09/23 03:45:27;;;;;;;17.23;11.27;;;12.50;99.90;;;;;;5053769;28;20033;-81
2023/09/23 03:47:53;;;;;;;17.20;10.63;;;12.50;99.90;;;;;;5052479;28;20044;-81
2023/09/23 03:50:18;;;;;;;18.70;11.13;;;12.50;99.90;;;;;;5052585;28;20400;-80
2023/09/23 03:52:45;;;;;;;16.00;11.00;;;12.50;99.90;;;;;;5052668;28;20384;-81
2023/09/23 03:55:13;;;;;;;18.83;11.30;;;12.50;99.90;;;;;;5052368;28;20052;-81
2023/09/23 03:57:40;;;;;;;18.13;11.05;;;12.50;99.90;;;;;;5053135;28;20057;-81
2023/09/23 04:00:14;;;;;;;22.10;11.77;;;12.50;99.90;;;;;;5052099;28;20052;-81
2023/09/23 04:02:40;;;;;;;17.73;11.65;;;12.50;99.90;;;;;;5035605;28;20049;-81
2023/09/23 04:05:06;;;;;;;16.02;10.68;;;12.50;99.90;;;;;;5052405;28;20043;-81
2023/09/23 04:07:32;;;;;;;20.88;11.57;;;12.50;99.90;;;;;;5052380;28;20115;-81
2023/09/23 04:09:58;;;;;;;20.00;10.43;;;12.50;99.90;;;;;;5052196;28;20053;-81
2023/09/23 04:12:23;;;;;;;17.83;10.60;;;12.40;99.90;;;;;;5052406;28;20409;-81
2023/09/23 04:14:50;;;;;;;18.35;11.52;;;12.50;99.90;;;;;;5052029;28;20056;-82
2023/09/23 04:17:16;;;;;;;17.00;11.05;;;12.40;99.90;;;;;;5053283;28;20044;-81
2023/09/23 04:19:41;;;;;;;16.27;10.90;;;12.30;99.90;;;;;;5053225;28;20049;-82
2023/09/23 04:22:07;;;;;;;19.00;12.15;;;12.30;99.90;;;;;;5052359;28;20055;-81
2023/09/23 04:24:32;;;;;;;20.33;11.55;;;12.30;99.90;;;;;;5051853;28;20452;-81
2023/09/23 04:26:59;;;;;;;16.48;10.73;;;12.30;99.90;;;;;;5052014;28;20049;-81
2023/09/23 04:29:25;;;;;;;18.02;10.95;;;12.30;99.90;;;;;;5052163;28;20056;-81
2023/09/23 04:31:51;;;;;;;16.35;10.43;;;12.40;99.90;;;;;;5052113;28;20044;-81
2023/09/23 04:34:17;;;;;;;16.83;10.45;;;12.30;99.90;;;;;;5052155;28;20103;-81
2023/09/23 04:36:46;;;;;;;16.92;9.65;;;12.30;99.90;;;;;;5051955;28;20120;-81
2023/09/23 04:39:12;;;;;;;15.80;9.35;;;12.30;99.90;;;;;;5053255;28;20045;-81
2023/09/23 04:41:40;;;;;;;17.42;9.85;;;12.30;99.90;;;;;;5051777;28;20392;-81
2023/09/23 04:44:06;;;;;;;15.65;10.40;;;12.30;99.90;;;;;;5051701;28;20041;-81
2023/09/23 04:46:33;;;;;;;15.73;9.32;;;12.30;99.90;;;;;;5052239;28;20116;-81
2023/09/23 04:49:00;;;;;;;14.55;10.57;;;12.30;99.90;;;;;;5055565;28;20083;-81
2023/09/23 04:51:26;;;;;;;15.30;10.35;;;12.30;99.90;;;;;;5055703;28;20046;-81
2023/09/23 04:53:52;;;;;;;16.13;10.05;;;12.30;99.90;;;;;;5055253;28;20163;-81
2023/09/23 04:56:18;;;;;;;18.02;10.52;;;12.30;99.90;;;;;;5055294;28;20045;-81
2023/09/23 04:58:45;;;;;;;16.85;11.10;;;12.30;99.90;;;;;;5056558;28;20408;-81
2023/09/23 05:01:12;;;;;;;19.80;12.05;;;12.30;99.90;;;;;;5055348;28;20045;-81
2023/09/23 05:03:37;;;;;;;16.10;10.95;;;12.30;99.90;;;;;;5055755;28;20057;-82
2023/09/23 05:06:05;;;;;;;16.50;10.77;;;12.30;99.90;;;;;;5056612;28;20064;-81
2023/09/23 05:08:31;;;;;;;15.15;12.07;;;12.30;99.90;;;;;;5055448;28;20051;-81
2023/09/23 05:10:57;;;;;;;15.90;11.18;;;12.20;99.90;;;;;;5055320;28;20131;-81
2023/09/23 05:13:24;;;;;;;17.20;10.88;;;12.20;99.90;;;;;;5054871;28;20171;-82
2023/09/23 05:15:50;;;;;;;15.40;10.23;;;12.20;99.90;;;;;;5054728;28;20052;-82
2023/09/23 05:18:17;;;;;;;18.73;11.63;;;12.10;99.90;;;;;;5053871;28;20132;-81
2023/09/23 05:20:43;;;;;;;16.67;9.93;;;12.20;99.90;;;;;;5056113;28;20041;-81
2023/09/23 05:23:09;;;;;;;15.13;10.18;;;12.10;99.90;;;;;;5054961;28;20127;-80
2023/09/23 05:25:36;;;;;;;14.98;10.50;;;12.10;99.90;;;;;;5054980;28;20040;-80
2023/09/23 05:28:04;;;;;;;15.15;9.73;;;12.20;99.90;;;;;;5056177;28;20120;-81
2023/09/23 05:30:29;;;;;;;16.58;10.50;;;12.20;99.90;;;;;;5056202;28;20049;-81
2023/09/23 05:32:55;;;;;;;16.27;10.00;;;12.10;99.90;;;;;;5054791;28;20094;-81
2023/09/23 05:35:21;;;;;;;15.85;11.10;;;12.10;99.90;;;;;;5055030;28;20076;-81
2023/09/23 05:37:49;;;;;;;16.40;10.73;;;12.10;99.90;;;;;;5055959;28;20068;-81
2023/09/23 05:40:23;;;;;;;17.75;10.73;;;12.10;99.90;;;;;;5054788;28;20045;-81
2023/09/23 05:42:50;;;;;;;15.10;10.45;;;12.10;99.90;;;;;;5054495;28;20052;-81
2023/09/23 05:45:17;;;;;;;15.90;10.43;;;12.00;99.90;;;;;;5054341;28;20045;-81
2023/09/23 05:47:42;;;;;;;17.70;10.43;;;11.90;99.90;;;;;;5054528;28;20472;-81
2023/09/23 05:50:11;;;;;;;17.42;10.80;;;11.90;99.90;;;;;;5054147;28;20045;-81
2023/09/23 05:52:37;;;;;;;18.85;11.93;;;11.80;99.90;;;;;;5054580;28;20087;-81
2023/09/23 05:55:04;;;;;;;17.88;11.85;;;11.80;99.90;;;;;;5054154;28;20076;-81
2023/09/23 05:57:30;;;;;;;16.70;11.35;;;11.80;99.90;;;;;;5053702;28;20511;-81
2023/09/23 05:59:56;;;;;;;17.52;10.65;;;11.80;99.90;;;;;;5055477;28;20041;-80
2023/09/23 06:02:21;;;;;;;18.77;11.40;;;11.80;99.90;;;;;;5054337;28;20382;-81
2023/09/23 06:04:47;;;;;;;24.25;12.73;;;11.90;99.90;;;;;;5054044;28;20045;-81
2023/09/23 06:07:13;;;;;;;22.40;12.23;;;11.90;99.90;;;;;;5055431;28;20087;-81
2023/09/23 06:09:43;;;;;;;22.20;13.45;;;11.90;99.90;;;;;;5053928;28;20472;-80
2023/09/23 06:12:09;;;;;;;20.38;13.00;;;12.00;99.90;;;;;;5054185;28;20052;-80
2023/09/23 06:14:35;;;;;;;20.55;12.55;;;12.00;99.90;;;;;;5054118;28;20049;-80
2023/09/23 06:17:01;;;;;;;21.02;12.77;;;12.10;99.90;;;;;;5054802;28;20500;-80
2023/09/23 06:19:27;;;;;;;19.02;11.43;;;12.10;99.90;;;;;;5053896;28;20477;-80
2023/09/23 06:21:54;;;;;;;20.40;12.63;;;12.10;99.90;;;;;;5055229;28;20493;-80
2023/09/23 06:24:20;;;;;;;18.25;12.60;;;12.20;99.90;;;;;;5054934;28;20044;-80
2023/09/23 06:26:46;;;;;;;20.75;13.07;;;12.30;99.90;;;;;;5053867;28;20053;-80
2023/09/23 06:29:14;;;;;;;22.13;13.00;;;12.30;99.90;;;;;;5053410;28;20033;-80
2023/09/23 06:31:40;;;;;;;18.60;12.13;;;12.30;99.90;;;;;;5054908;28;20435;-80
2023/09/23 06:34:06;;;;;;;19.30;12.50;;;12.40;99.90;;;;;;5053474;28;20106;-80
2023/09/23 06:36:33;;;;;;;19.48;12.32;;;12.50;99.90;;;;;;5054975;28;20045;-81
2023/09/23 06:38:58;;;;;;;20.88;13.10;;;12.50;99.90;;;;;;5053635;28;20052;-80
2023/09/23 06:41:24;;;;;;;22.25;13.85;;;12.60;99.90;;;;;;5046365;28;20404;-80
2023/09/23 06:43:52;;;;;;;20.05;14.05;;;12.70;99.90;;;;;;5036776;28;20049;-78
2023/09/23 06:46:17;;;;;;;21.02;13.90;;;12.80;99.90;;;;;;5033310;28;20041;-80
2023/09/23 06:48:43;;;;;;;21.38;13.43;;;12.80;99.90;;;;;;5033003;28;20105;-79
2023/09/23 06:51:10;;;;;;;20.25;12.77;;;12.90;99.90;;;;;;5033272;28;20045;-80
2023/09/23 06:53:36;;;;;;;22.10;12.63;;;12.90;99.90;;;;;;5033270;28;20041;-80
2023/09/23 06:56:02;;;;;;;18.17;12.35;;;12.90;99.90;;;;;;5033231;28;20050;-80
2023/09/23 06:58:30;;;;;;;19.85;12.88;;;12.90;99.90;;;;;;5032874;28;20053;-79
2023/09/23 07:00:57;;;;;;;20.52;12.45;;;12.90;99.90;;;;;;5033007;28;20083;-80
2023/09/23 07:03:22;;;;;;;24.08;13.40;;;12.90;99.90;;;;;;5033003;28;20464;-80
2023/09/23 07:05:48;;;;;;;19.25;12.95;;;12.90;99.90;;;;;;5032422;28;20128;-79
2023/09/23 07:08:14;;;;;;;23.80;13.73;;;13.00;99.90;;;;;;5033952;28;20053;-79
2023/09/23 07:10:40;;;;;;;21.33;12.82;;;13.10;99.90;;;;;;5031786;28;20041;-78
2023/09/23 07:13:06;;;;;;;21.38;12.27;;;13.10;99.90;;;;;;5032859;28;20121;-78
2023/09/23 07:15:40;;;;;;;19.92;12.50;;;13.20;99.90;;;;;;5032609;28;20124;-77
2023/09/23 07:18:06;;;;;;;19.88;13.02;;;13.20;99.90;;;;;;5032530;28;20515;-78
2023/09/23 07:20:33;;;;;;;20.00;12.40;;;13.30;99.90;;;;;;5034063;28;20045;-79
2023/09/23 07:22:59;;;;;;;23.75;12.63;;;13.30;99.90;;;;;;5033855;28;20041;-79
2023/09/23 07:25:26;;;;;;;20.77;12.75;;;13.30;99.90;;;;;;5032474;28;20121;-79
2023/09/23 07:27:53;;;;;;;22.08;12.55;;;13.30;99.90;;;;;;5032611;28;20473;-79
2023/09/23 07:30:21;;;;;;;21.75;13.10;;;13.40;99.90;;;;;;5032340;28;20081;-79
2023/09/23 07:32:47;;;;;;;23.70;13.27;;;13.40;99.90;;;;;;5032361;28;20041;-79
2023/09/23 07:35:12;;;;;;;19.23;13.00;;;13.40;99.90;;;;;;5033748;28;20045;-79
2023/09/23 07:37:38;;;;;;;20.75;12.73;;;13.40;99.90;;;;;;5032208;28;20048;-79
2023/09/23 07:40:06;;;;;;;21.40;12.88;;;13.50;99.90;;;;;;5032454;28;20045;-78
2023/09/23 07:42:32;;;;;;;24.73;13.25;;;13.50;99.90;;;;;;5032366;28;20046;-79
2023/09/23 07:44:58;;;;;;;21.35;13.27;;;13.50;99.90;;;;;;5032057;28;20045;-77
2023/09/23 07:47:23;;;;;;;20.58;13.23;;;13.60;99.90;;;;;;5032004;28;20060;-79
2023/09/23 07:49:49;;;;;;;18.67;12.75;;;13.70;99.90;;;;;;5032009;28;20048;-80
2023/09/23 07:52:14;;;;;;;20.13;11.70;;;13.80;99.90;;;;;;5032366;28;20551;-78
2023/09/23 07:54:40;;;;;;;20.60;11.48;;;13.90;99.90;;;;;;5031752;28;20401;-79
2023/09/23 07:57:06;;;;;;;21.25;13.27;;;13.90;99.90;;;;;;5031652;28;20052;-78
2023/09/23 07:59:32;;;;;;;20.30;11.75;;;13.90;99.90;;;;;;5031870;28;20087;-78
2023/09/23 08:01:58;;;;;;;19.85;12.02;;;13.90;99.90;;;;;;5031922;28;20065;-78
2023/09/23 08:04:23;;;;;;;22.38;13.43;;;14.00;99.90;;;;;;5031844;28;20045;-78
2023/09/23 08:06:49;;;;;;;20.25;12.18;;;14.10;99.90;;;;;;5031856;28;20045;-78
2023/09/23 08:09:15;;;;;;;20.27;12.82;;;14.10;99.90;;;;;;5031908;28;20511;-78
2023/09/23 08:11:43;;;;;;;20.83;12.35;;;14.20;99.90;;;;;;5031978;28;20046;-79
2023/09/23 08:14:09;;;;;;;19.48;12.52;;;14.30;99.90;;;;;;5032063;28;20144;-78
2023/09/23 08:16:34;;;;;;;18.60;11.73;;;14.40;99.90;;;;;;5032059;28;20069;-78
2023/09/23 08:19:00;;;;;;;20.83;13.27;;;14.50;99.90;;;;;;5031678;28;20485;-78
2023/09/23 08:21:26;;;;;;;22.50;14.40;;;14.50;99.90;;;;;;5033707;28;20042;-79
2023/09/23 08:23:52;;;;;;;19.50;11.68;;;14.60;99.90;;;;;;5037165;28;20050;-78
2023/09/23 08:26:17;;;;;;;19.00;11.35;;;14.70;99.90;;;;;;5035714;28;20045;-78
2023/09/23 08:28:43;;;;;;;18.75;10.85;;;14.80;99.90;;;;;;5035615;28;20100;-79
2023/09/23 08:31:09;;;;;;;15.77;10.85;;;14.90;99.90;;;;;;5035648;28;20045;-78
2023/09/23 08:33:35;;;;;;;11.98;8.88;;;14.90;99.90;;;;;;5035749;28;20044;-79
2023/09/23 08:36:01;;;;;;;15.05;8.02;;;14.90;99.90;;;;;;5036705;28;20377;-78
2023/09/23 08:38:26;;;;;;;10.55;5.38;;;15.00;99.90;;;;;;5035757;28;20045;-78
2023/09/23 08:40:53;;;;;;;14.63;5.43;;;15.10;99.90;;;;;;5035570;28;20067;-79
2023/09/23 08:43:36;;;;;;;11.55;5.22;;;15.10;99.90;;;;;;5035700;28;20057;-79
2023/09/23 08:46:09;;;;;;;8.95;3.47;;;15.20;99.90;;;;;;5035583;28;20052;-78
2023/09/23 08:48:35;;;;;;;7.70;3.70;;;15.30;99.90;;;;;;5035542;28;20484;-78
2023/09/23 08:51:03;;;;;;;9.65;3.60;;;15.40;99.90;;;;;;5035589;28;20121;-78
2023/09/23 08:53:38;;;;;;;8.40;3.53;;;15.50;99.90;;;;;;5035446;28;20137;-78
2023/09/23 08:56:05;;;;;;;8.13;3.22;;;15.60;99.90;;;;;;5036312;28;20045;-78
2023/09/23 08:58:31;;;;;;;8.27;3.35;;;15.70;99.90;;;;;;5035050;28;20049;-78
2023/09/23 09:00:57;;;;;;;6.32;3.10;;;15.80;99.90;;;;;;5035128;28;20084;-78
2023/09/23 09:03:22;;;;;;;8.63;3.33;;;15.90;99.90;;;;;;5035136;28;20080;-78
2023/09/23 09:05:48;;;;;;;6.47;3.55;;;16.10;99.90;;;;;;5035211;28;20053;-78
2023/09/23 09:08:14;;;;;;;9.50;3.55;;;16.20;99.90;;;;;;5034781;28;20132;-78
2023/09/23 09:10:40;;;;;;;7.40;3.13;;;16.40;99.90;;;;;;5034709;28;20037;-78
2023/09/23 09:13:07;;;;;;;10.38;3.45;;;16.50;99.90;;;;;;5034774;28;20045;-78
2023/09/23 09:15:37;;;;;;;9.68;3.03;;;16.50;99.90;;;;;;5034817;28;20535;-78
2023/09/23 09:18:04;;;;;;;8.82;2.92;;;16.50;99.90;;;;;;5034876;28;20076;-78
2023/09/23 09:20:31;;;;;;;11.38;3.33;;;16.60;99.90;;;;;;5034961;28;20515;-78
2023/09/23 09:22:57;;;;;;;5.70;2.90;;;16.60;99.90;;;;;;5034902;28;20477;-77
2023/09/23 09:25:23;;;;;;;8.85;3.10;;;16.70;99.90;;;;;;5044968;28;20071;-78
2023/09/23 09:27:53;;;;;;;8.15;2.47;;;16.70;99.90;;;;;;5054676;28;20040;-78
2023/09/23 09:30:19;;;;;;;6.40;2.38;;;16.80;99.90;;;;;;5055740;28;20111;-77
2023/09/23 09:32:46;;;;;;;5.80;2.20;;;16.80;99.90;;;;;;5053541;28;20048;-78
2023/09/23 09:35:17;;;;;;;7.57;3.03;;;16.90;99.90;;;;;;5055524;28;20056;-77
2023/09/23 09:37:47;;;;;;;6.97;2.10;;;16.90;99.90;;;;;;5054596;28;20037;-77
2023/09/23 09:40:17;;;;;;;4.60;1.90;;;17.00;99.90;;;;;;5054258;28;20045;-78
2023/09/23 09:42:57;;;;;;;6.45;2.03;;;17.10;99.90;;;;;;5054152;28;20049;-77
2023/09/23 09:45:23;;;;;;;4.43;1.55;;;17.00;99.90;;;;;;5055775;28;20049;-77
2023/09/23 09:47:55;;;;;;;5.20;2.20;;;16.80;99.90;;;;;;5055456;28;20128;-77
2023/09/23 09:50:23;;;;;;;5.75;2.25;;;16.80;99.90;;;;;;5055510;28;20124;-78
2023/09/23 09:52:51;;;;;;;4.85;1.77;;;16.80;99.90;;;;;;5054265;28;20133;-78
2023/09/23 09:55:20;;;;;;;4.72;1.30;;;16.80;99.90;;;;;;5053963;28;20127;-78
2023/09/23 09:57:52;;;;;;;4.93;1.50;;;16.70;99.90;;;;;;5054950;28;20049;-78
2023/09/23 10:00:29;;;;;;;4.53;1.60;;;16.60;99.90;;;;;;5053912;28;20462;-78
2023/09/23 10:02:58;;;;;;;8.25;2.20;;;16.80;99.90;;;;;;5053686;28;20476;-78
2023/09/23 10:05:35;;;;;;;4.53;1.55;;;16.80;99.90;;;;;;5054124;28;20045;-78
2023/09/23 10:08:13;;;;;;;12.85;1.70;;;16.80;99.90;;;;;;5054048;28;20047;-78
2023/09/23 10:10:47;;;;;;;6.95;1.75;;;16.80;99.90;;;;;;5054933;28;20049;-78
2023/09/23 10:13:18;;;;;;;6.95;1.55;;;16.70;99.90;;;;;;5053943;28;20099;-78
2023/09/23 10:15:44;;;;;;;6.18;1.40;;;16.60;99.90;;;;;;5053608;28;20132;-77
2023/09/23 10:18:11;;;;;;;5.28;1.40;;;16.60;99.90;;;;;;5053712;28;20082;-78
2023/09/23 10:20:51;;;;;;;6.03;1.48;;;16.60;99.90;;;;;;5053820;28;20484;-78
2023/09/23 10:23:18;;;;;;;5.50;1.52;;;16.70;99.90;;;;;;5053656;28;20523;-78
2023/09/23 10:25:45;;;;;;;5.18;2.05;;;16.80;99.90;;;;;;5053419;28;20052;-78
2023/09/23 10:28:25;;;;;;;6.97;1.65;;;16.80;99.90;;;;;;5053244;28;20036;-78
2023/09/23 10:31:13;;;;;;;5.40;1.40;;;16.90;99.90;;;;;;5053632;28;20072;-78
2023/09/23 10:33:39;;;;;;;4.60;1.50;;;16.80;99.90;;;;;;5053346;28;20045;-77
2023/09/23 10:36:06;;;;;;;6.28;1.50;;;16.80;99.90;;;;;;5053440;28;20049;-77
2023/09/23 10:38:35;;;;;;;3.42;1.58;;;16.70;99.90;;;;;;5054503;28;20055;-78
2023/09/23 10:41:02;;;;;;;3.67;1.40;;;16.70;99.90;;;;;;5053240;28;20503;-77
2023/09/23 10:43:28;;;;;;;5.80;1.63;;;16.70;99.90;;;;;;5052970;28;20061;-77
2023/09/23 10:45:56;;;;;;;6.82;1.45;;;16.70;99.90;;;;;;5053138;28;20044;-77
2023/09/23 10:48:22;;;;;;;6.78;1.50;;;16.80;99.90;;;;;;5052770;28;20389;-77
2023/09/23 10:50:50;;;;;;;5.25;1.40;;;17.00;99.90;;;;;;5053077;28;20122;-78
2023/09/23 10:53:15;;;;;;;7.13;1.52;;;16.90;99.90;;;;;;5052779;28;20495;-78
2023/09/23 10:55:41;;;;;;;7.68;1.65;;;16.90;99.90;;;;;;5053013;28;20045;-78
2023/09/23 10:58:11;;;;;;;5.13;2.17;;;17.00;99.90;;;;;;5052566;28;20077;-77
2023/09/23 11:00:37;;;;;;;6.13;1.58;;;16.90;99.90;;;;;;5052616;28;20396;-77
2023/09/23 11:03:08;;;;;;;4.32;1.55;;;16.90;99.90;;;;;;5052936;28;20029;-77
2023/09/23 11:05:37;;;;;;;4.07;1.42;;;16.80;99.90;;;;;;5053953;28;20123;-77
2023/09/23 11:08:07;;;;;;;3.28;1.27;;;16.80;99.90;;;;;;5054083;28;20045;-77
2023/09/23 11:10:36;;;;;;;6.03;1.60;;;16.90;99.90;;;;;;5052485;28;20076;-77
2023/09/23 11:13:08;;;;;;;7.75;1.90;;;16.90;99.90;;;;;;5052739;28;20040;-76
2023/09/23 11:15:36;;;;;;;6.85;1.70;;;17.10;99.90;;;;;;5052388;28;20496;-77
2023/09/23 11:18:02;;;;;;;5.30;1.65;;;17.30;99.90;;;;;;5052414;28;20125;-76
2023/09/23 11:20:29;;;;;;;3.95;1.58;;;17.40;99.90;;;;;;5052170;28;20136;-77
2023/09/23 11:23:02;;;;;;;4.35;1.30;;;17.30;99.90;;;;;;5053837;28;20056;-76
2023/09/23 11:25:27;;;;;;;4.15;1.52;;;17.30;99.90;;;;;;5052071;28;20102;-76
2023/09/23 11:27:57;;;;;;;5.25;1.30;;;17.30;99.90;;;;;;5052264;28;20045;-76
2023/09/23 11:30:23;;;;;;;4.43;1.27;;;17.30;99.90;;;;;;5053623;28;20037;-76
2023/09/23 11:32:53;;;;;;;4.57;1.30;;;17.20;99.90;;;;;;5053287;28;20048;-77
2023/09/23 11:35:22;;;;;;;2.92;1.23;;;17.20;99.90;;;;;;5052137;28;20045;-76
2023/09/23 11:37:49;;;;;;;6.55;2.13;;;17.30;99.90;;;;;;5053619;28;20040;-77
2023/09/23 11:40:16;;;;;;;3.80;1.30;;;17.40;99.90;;;;;;5051954;28;20056;-77
2023/09/23 11:42:41;;;;;;;3.65;1.30;;;17.50;99.90;;;;;;5051996;28;20053;-77
2023/09/23 11:45:11;;;;;;;5.95;1.45;;;17.60;99.90;;;;;;5051941;28;20090;-77
2023/09/23 11:47:38;;;;;;;4.72;1.30;;;17.60;99.90;;;;;;5051890;28;20047;-77
2023/09/23 11:50:05;;;;;;;6.65;2.47;;;17.70;99.90;;;;;;5053198;28;20045;-76
2023/09/23 11:52:32;;;;;;;5.25;1.95;;;17.80;99.90;;;;;;5053320;28;20065;-76
2023/09/23 11:54:58;;;;;;;4.15;1.50;;;17.80;99.90;;;;;;5051822;28;20404;-76
2023/09/23 11:57:25;;;;;;;4.68;1.20;;;17.80;99.90;;;;;;5051160;28;20508;-77
2023/09/23 11:59:51;;;;;;;2.70;1.40;;;17.80;99.90;;;;;;5052388;28;20052;-77
2023/09/23 12:02:19;;;;;;;6.15;1.40;;;18.00;99.90;;;;;;5051715;28;20068;-77
2023/09/23 12:04:46;;;;;;;4.60;1.80;;;18.00;99.90;;;;;;5052943;28;20049;-76
2023/09/23 12:07:14;;;;;;;3.65;1.38;;;18.00;99.90;;;;;;5053126;28;20048;-77
2023/09/23 12:09:40;;;;;;;9.77;1.92;;;18.00;99.90;;;;;;5051681;28;20049;-80
2023/09/23 12:12:06;;;;;;;4.28;1.65;;;18.10;99.90;;;;;;5052836;28;20485;-79
2023/09/23 12:14:32;;;;;;;4.10;1.52;;;18.10;99.90;;;;;;5052011;28;20072;-77
2023/09/23 12:16:57;;;;;;;4.70;1.60;;;18.10;99.90;;;;;;5051634;28;20480;-77
2023/09/23 12:19:23;;;;;;;7.10;2.33;;;18.10;99.90;;;;;;5051632;28;20052;-78
2023/09/23 12:21:49;;;;;;;4.10;1.60;;;18.20;99.90;;;;;;5052705;28;20072;-77
2023/09/23 12:24:15;;;;;;;5.35;1.50;;;18.10;99.90;;;;;;5051925;28;20488;-77
2023/09/23 12:26:41;;;;;;;4.68;1.52;;;18.10;99.90;;;;;;5051520;28;20045;-77
2023/09/23 12:29:06;;;;;;;8.00;1.77;;;18.00;99.90;;;;;;5051642;28;20045;-77
2023/09/23 12:31:32;;;;;;;4.70;1.80;;;18.00;99.90;;;;;;5051905;28;20088;-77
2023/09/23 12:33:58;;;;;;;4.95;1.40;;;17.90;99.90;;;;;;5051450;28;20041;-77
2023/09/23 12:36:24;;;;;;;6.82;1.75;;;17.90;99.90;;;;;;5051607;28;20045;-77
2023/09/23 12:38:49;;;;;;;5.85;1.20;;;18.00;99.90;;;;;;5051684;28;20059;-77